»·PEaware :: N160BZ KLAX-KSNA

N160BZ :: KLAX-KSNA

FLIGHT INFORMATION

Flight Status: Arrived
Operator: Privately registered:
United States
More flights under this callsign
Pilot: Martin C. (20247)
Aircraft: BEECH AIRCRAFT BARON
(BE58)
More flights by this aircraft type
Origin: KLAX Los Angeles Intl
United States
Destination: KSNA John Wayne-Orange Co
United States
More flights between these airports :: More routes between these airports
Route: SLI8 SLI
File this flight plan on PilotEdge
Remarks:
Altitude:
(Current/Filed)
4,000ft
Speed:
(Current/Filed)
170kts
Departed: 11-Feb-19 02:44 PM
Arrived: 11-Feb-19 03:14 PM
Distance/Time
Traveled:
31nm/0:30
Distance/Time
To Go:
Arrived

Flight Plot

Page will automatically refresh every two minutes.

Flight plan parsing failed; only flown route is shown


Map Options




Map Legend


Flown Route
Filed Route
Departure Airport
Arrival Airport
Navaid (VOR, NDB)
Fix

Horizontal Profiles

Position Reports

Time Latitude Longitude Heading Altitude Ground
Speed
11-Feb-19 13:59 33.943702 -118.431861 262 97ft 0kts
11-Feb-19 14:00 33.943702 -118.431861 262 97ft 0kts
11-Feb-19 14:01 33.943702 -118.431861 262 97ft 0kts
11-Feb-19 14:02 33.943702 -118.431861 262 97ft 0kts
11-Feb-19 14:03 33.943702 -118.431861 262 97ft 0kts
11-Feb-19 14:04 33.943702 -118.431861 262 97ft 0kts
11-Feb-19 14:05 33.943702 -118.431861 262 97ft 0kts
11-Feb-19 14:06 33.943702 -118.431861 262 97ft 0kts
11-Feb-19 14:07 33.943702 -118.431861 262 97ft 0kts
11-Feb-19 14:08 33.943702 -118.431861 262 97ft 0kts
11-Feb-19 14:09 33.943702 -118.431861 262 97ft 0kts
11-Feb-19 14:10 33.943702 -118.431861 262 97ft 0kts
11-Feb-19 14:11 33.943702 -118.431861 262 97ft 0kts
11-Feb-19 14:12 33.943702 -118.431861 262 97ft 0kts
11-Feb-19 14:13 33.943702 -118.431861 262 97ft 0kts
11-Feb-19 14:14 33.943702 -118.431861 262 97ft 0kts
11-Feb-19 14:15 33.943702 -118.431861 262 97ft 0kts
11-Feb-19 14:16 33.943702 -118.431861 262 97ft 0kts
11-Feb-19 14:17 33.943702 -118.431861 262 97ft 0kts
11-Feb-19 14:18 33.943702 -118.431861 262 97ft 0kts
11-Feb-19 14:19 33.943702 -118.431861 262 97ft 0kts
11-Feb-19 14:20 33.943702 -118.431861 262 97ft 0kts
11-Feb-19 14:21 33.943702 -118.431861 262 97ft 0kts
11-Feb-19 14:22 33.943702 -118.431861 262 97ft 0kts
11-Feb-19 14:29 33.943702 -118.431861 262 97ft 0kts
11-Feb-19 14:30 33.943702 -118.431861 262 97ft 0kts
11-Feb-19 14:31 33.943702 -118.431861 262 97ft 0kts
11-Feb-19 14:32 33.943702 -118.431861 262 97ft 0kts
11-Feb-19 14:33 33.943702 -118.431861 262 97ft 0kts
11-Feb-19 14:34 33.943702 -118.431861 262 97ft 0kts
11-Feb-19 14:35 33.943958 -118.431792 25 97ft 3kts
11-Feb-19 14:36 33.945539 -118.431157 2 100ft 7kts
11-Feb-19 14:37 33.946197 -118.428511 83 104ft 10kts
11-Feb-19 14:38 33.946583 -118.424775 82 109ft 11kts
11-Feb-19 14:39 33.946990 -118.420930 81 114ft 12kts
11-Feb-19 14:40 33.947416 -118.416629 83 116ft 14kts
11-Feb-19 14:41 33.948044 -118.411922 81 119ft 14kts
11-Feb-19 14:42 33.948447 -118.410693 2 119ft 0kts
11-Feb-19 14:43 33.946899 -118.429576 260 329ft 130kts
11-Feb-19 14:44 33.941738 -118.476797 263 1138ft 142kts
11-Feb-19 14:45 33.917335 -118.501419 154 2036ft 147kts
11-Feb-19 14:46 33.880049 -118.477967 152 3009ft 145kts
11-Feb-19 14:47 33.843262 -118.454532 152 3917ft 147kts
11-Feb-19 14:48 33.802692 -118.428267 152 3984ft 177kts
11-Feb-19 14:49 33.792599 -118.374054 85 3982ft 179kts
11-Feb-19 14:50 33.793906 -118.314841 91 3980ft 173kts
11-Feb-19 14:51 33.791415 -118.257299 92 3978ft 171kts
11-Feb-19 14:52 33.789111 -118.200185 92 3976ft 172kts
11-Feb-19 14:53 33.786811 -118.142609 92 3983ft 172kts
11-Feb-19 14:54 33.784485 -118.084737 93 3981ft 173kts
11-Feb-19 14:55 33.795394 -118.030053 67 3979ft 173kts
11-Feb-19 14:56 33.814016 -117.976588 64 3976ft 172kts
11-Feb-19 14:57 33.833990 -117.924346 63 3974ft 171kts
11-Feb-19 14:58 33.853913 -117.872679 63 3973ft 169kts
11-Feb-19 14:59 33.873787 -117.821566 60 3966ft 160kts
11-Feb-19 15:00 33.891683 -117.779269 58 3963ft 133kts
11-Feb-19 15:01 33.908203 -117.739626 59 3963ft 131kts
11-Feb-19 15:02 33.926968 -117.703419 27 3977ft 127kts
11-Feb-19 15:03 33.958067 -117.683072 30 3960ft 128kts
11-Feb-19 15:04 33.968172 -117.698460 191 3945ft 134kts
11-Feb-19 15:05 33.928813 -117.709183 190 3559ft 152kts
11-Feb-19 15:06 33.891675 -117.729751 206 3412ft 147kts
11-Feb-19 15:08 33.856837 -117.751919 207 3418ft 138kts
11-Feb-19 15:09 33.822315 -117.774347 208 3122ft 148kts
11-Feb-19 15:10 33.785145 -117.798829 209 2408ft 151kts
11-Feb-19 15:11 33.752492 -117.819613 205 1641ft 108kts
11-Feb-19 15:12 33.725352 -117.836717 208 1051ft 113kts
11-Feb-19 15:13 33.697568 -117.855078 204 468ft 103kts
11-Feb-19 15:14 33.675958 -117.868639 212 60ft 7kts
11-Feb-19 15:15 33.675820 -117.869422 278 60ft 0kts
11-Feb-19 15:16 33.676168 -117.870616 246 60ft 1kts
11-Feb-19 15:17 33.676037 -117.870837 221 60ft 0kts

Navigation Log

Ident Type
Flight plan parsing failed, navigation log unavailable